Aeroporto :
LOGIN :

Iscrizione | Disclaimer

   EN    FR    IT 

 










Sommario :    VFR   VFR Marginale   IFR   IFR Intensivo   IFR Molto Intensivo
Visibilità : 
Base nubi : 
>= 8 km
>= 3000ft
5 / 8 km
1000 / 3000 ft
1500m / 5 km
500 / 1000 ft
800 / 1500m
200 / 500 ft
< 800m
< 200 ft
Simboli :   Temporali  Nebbia  Neve Forte  Precipitazioni Forti  Vento > 20 kt
SIGMETs :   Varie  Temporali  Ghiacco  Turbolenza  Onda orograficha  Ceneri Vulcaniche







- Altitudine del aeroporto : 1 ft
- Carte del aeroporto


EGCK - Caernarfon

ULTIMO METAR :
  • 170720Z AUTO 21015KT 9999 NCD 14/11 Q1013

METARs OBSOLETI :
  • 170650Z AUTO 21015KT 9999 SCT049/// 14/11 Q1012
  • 170620Z AUTO 21013KT 9999 FEW016/// BKN046/// 13/11 Q1012
  • 170550Z AUTO 20013KT 9999 SCT014/// OVC044/// 13/11 Q1012
  • 170520Z AUTO 20012KT 9999 FEW015/// 13/11 Q1012
  • 170450Z AUTO 21011KT 9999 FEW017/// 13/11 Q1012
  • 170420Z AUTO 20014KT 9999 NCD 12/11 Q1012

TAF TAF EGCK
Valido dal 17 a 06 ore il 17 a 15 ore UTC


170455Z 1706/1715 21012KT 9999 SCT020
TEMPO 1706/1715 23015G25KT
Nessun NOTAM noto per questo aeroporto.



MetMap, La meteo Aeronautica in un colpo d'occhio ! - Copyright ORBIFLY Dicembre 2007 - Disclaimer

ORBIFLY MET'MAP TEAM :

Programmazione e sviluppo : Alexandra Zaïnal
Concezione e sviluppo : Baudouin d'Aumeries
Co-Programmazione e sviluppo : Marc-Olivier Méhu
Supporto tecnico e logistico : Manuel Goepfert
Aiuto per la traduzione : Arnaldo La Scala

Contatto : metmap@orbifly.com




FONTI E CREDITI :

   NOAA